sensor_id;sensor_type;location;lat;lon;timestamp;P1;P2;P0
30342;PMS5003;17145;49.902;8.680;2023-01-16T00:02:00;3;2;
30342;PMS5003;17145;49.902;8.680;2023-01-16T00:04:27;3;2;
30342;PMS5003;17145;49.902;8.680;2023-01-16T00:06:55;2;2;
30342;PMS5003;17145;49.902;8.680;2023-01-16T00:09:23;2;2;
30342;PMS5003;17145;49.902;8.680;2023-01-16T00:11:50;3;2;
30342;PMS5003;17145;49.902;8.680;2023-01-16T00:14:18;1;1;
30342;PMS5003;17145;49.902;8.680;2023-01-16T00:16:45;2;2;
30342;PMS5003;17145;49.902;8.680;2023-01-16T00:19:12;3;2;
30342;PMS5003;17145;49.902;8.680;2023-01-16T00:21:40;2;2;
30342;PMS5003;17145;49.902;8.680;2023-01-16T00:24:07;3;2;
30342;PMS5003;17145;49.902;8.680;2023-01-16T00:26:35;1;1;
30342;PMS5003;17145;49.902;8.680;2023-01-16T00:29:02;2;1;
30342;PMS5003;17145;49.902;8.680;2023-01-16T00:31:29;1;1;
30342;PMS5003;17145;49.902;8.680;2023-01-16T00:33:57;1;1;
30342;PMS5003;17145;49.902;8.680;2023-01-16T00:36:24;1;1;
30342;PMS5003;17145;49.902;8.680;2023-01-16T00:38:52;2;2;
30342;PMS5003;17145;49.902;8.680;2023-01-16T00:41:19;2;2;
30342;PMS5003;17145;49.902;8.680;2023-01-16T00:43:46;2;2;
30342;PMS5003;17145;49.902;8.680;2023-01-16T00:46:14;2;2;
30342;PMS5003;17145;49.902;8.680;2023-01-16T00:48:41;2;1;
30342;PMS5003;17145;49.902;8.680;2023-01-16T00:51:09;2;1;
30342;PMS5003;17145;49.902;8.680;2023-01-16T00:53:36;2;2;
30342;PMS5003;17145;49.902;8.680;2023-01-16T00:56:04;1;1;
30342;PMS5003;17145;49.902;8.680;2023-01-16T00:58:32;2;2;
30342;PMS5003;17145;49.902;8.680;2023-01-16T01:01:00;3;2;
30342;PMS5003;17145;49.902;8.680;2023-01-16T01:03:27;1;1;
30342;PMS5003;17145;49.902;8.680;2023-01-16T01:05:54;2;2;
30342;PMS5003;17145;49.902;8.680;2023-01-16T01:08:22;5;4;
30342;PMS5003;17145;49.902;8.680;2023-01-16T01:10:49;2;2;
30342;PMS5003;17145;49.902;8.680;2023-01-16T01:13:17;3;2;
30342;PMS5003;17145;49.902;8.680;2023-01-16T01:15:44;2;2;
30342;PMS5003;17145;49.902;8.680;2023-01-16T01:18:11;4;3;
30342;PMS5003;17145;49.902;8.680;2023-01-16T01:20:39;1;1;
30342;PMS5003;17145;49.902;8.680;2023-01-16T01:23:06;1;1;
30342;PMS5003;17145;49.902;8.680;2023-01-16T01:25:35;1;1;
30342;PMS5003;17145;49.902;8.680;2023-01-16T01:28:04;1;1;
30342;PMS5003;17145;49.902;8.680;2023-01-16T01:30:31;2;2;
30342;PMS5003;17145;49.902;8.680;2023-01-16T01:32:58;1;1;
30342;PMS5003;17145;49.902;8.680;2023-01-16T01:35:26;3;2;
30342;PMS5003;17145;49.902;8.680;2023-01-16T01:37:53;1;1;
30342;PMS5003;17145;49.902;8.680;2023-01-16T01:40:21;2;2;
30342;PMS5003;17145;49.902;8.680;2023-01-16T01:42:48;1;1;
30342;PMS5003;17145;49.902;8.680;2023-01-16T01:45:18;2;2;
30342;PMS5003;17145;49.902;8.680;2023-01-16T01:47:49;2;2;
30342;PMS5003;17145;49.902;8.680;2023-01-16T01:50:24;1;1;
30342;PMS5003;17145;49.902;8.680;2023-01-16T01:53:01;2;2;
30342;PMS5003;17145;49.902;8.680;2023-01-16T01:55:35;1;1;
30342;PMS5003;17145;49.902;8.680;2023-01-16T01:58:05;3;2;
30342;PMS5003;17145;49.902;8.680;2023-01-16T02:00:33;1;1;
30342;PMS5003;17145;49.902;8.680;2023-01-16T02:03:02;1;1;
30342;PMS5003;17145;49.902;8.680;2023-01-16T02:05:34;2;2;
30342;PMS5003;17145;49.902;8.680;2023-01-16T02:08:06;1;1;
30342;PMS5003;17145;49.902;8.680;2023-01-16T02:10:36;3;3;
30342;PMS5003;17145;49.902;8.680;2023-01-16T02:13:07;3;2;
30342;PMS5003;17145;49.902;8.680;2023-01-16T02:15:34;3;2;
30342;PMS5003;17145;49.902;8.680;2023-01-16T02:18:04;3;1;
30342;PMS5003;17145;49.902;8.680;2023-01-16T02:20:39;2;1;
30342;PMS5003;17145;49.902;8.680;2023-01-16T02:23:27;3;2;
30342;PMS5003;17145;49.902;8.680;2023-01-16T02:31:31;2;1;
30342;PMS5003;17145;49.902;8.680;2023-01-16T02:34:11;1;1;
30342;PMS5003;17145;49.902;8.680;2023-01-16T02:36:58;2;1;
30342;PMS5003;17145;49.902;8.680;2023-01-16T02:39:36;2;1;
30342;PMS5003;17145;49.902;8.680;2023-01-16T02:42:13;3;2;
30342;PMS5003;17145;49.902;8.680;2023-01-16T02:44:49;2;2;
30342;PMS5003;17145;49.902;8.680;2023-01-16T02:47:25;1;1;
30342;PMS5003;17145;49.902;8.680;2023-01-16T02:49:59;2;2;
30342;PMS5003;17145;49.902;8.680;2023-01-16T02:52:35;2;1;
30342;PMS5003;17145;49.902;8.680;2023-01-16T02:55:07;1;1;
30342;PMS5003;17145;49.902;8.680;2023-01-16T02:57:42;3;2;
30342;PMS5003;17145;49.902;8.680;2023-01-16T03:00:14;1;1;
30342;PMS5003;17145;49.902;8.680;2023-01-16T03:02:43;2;2;
30342;PMS5003;17145;49.902;8.680;2023-01-16T03:05:10;1;1;
30342;PMS5003;17145;49.902;8.680;2023-01-16T03:07:44;3;3;
30342;PMS5003;17145;49.902;8.680;2023-01-16T03:10:22;2;2;
30342;PMS5003;17145;49.902;8.680;2023-01-16T03:13:04;2;2;
30342;PMS5003;17145;49.902;8.680;2023-01-16T03:15:44;1;1;
30342;PMS5003;17145;49.902;8.680;2023-01-16T03:18:23;2;2;
30342;PMS5003;17145;49.902;8.680;2023-01-16T03:21:02;3;2;
30342;PMS5003;17145;49.902;8.680;2023-01-16T03:23:38;1;1;
30342;PMS5003;17145;49.902;8.680;2023-01-16T03:26:13;3;2;
30342;PMS5003;17145;49.902;8.680;2023-01-16T03:28:50;4;3;
30342;PMS5003;17145;49.902;8.680;2023-01-16T03:31:26;3;2;
30342;PMS5003;17145;49.902;8.680;2023-01-16T03:34:00;7;4;
30342;PMS5003;17145;49.902;8.680;2023-01-16T03:36:37;3;2;
30342;PMS5003;17145;49.902;8.680;2023-01-16T03:39:12;3;2;
30342;PMS5003;17145;49.902;8.680;2023-01-16T03:41:44;3;3;
30342;PMS5003;17145;49.902;8.680;2023-01-16T03:44:17;4;1;
30342;PMS5003;17145;49.902;8.680;2023-01-16T03:46:50;2;2;
30342;PMS5003;17145;49.902;8.680;2023-01-16T03:49:18;1;1;
30342;PMS5003;17145;49.902;8.680;2023-01-16T03:51:51;4;3;
30342;PMS5003;17145;49.902;8.680;2023-01-16T03:54:26;3;2;
30342;PMS5003;17145;49.902;8.680;2023-01-16T03:57:05;3;2;
30342;PMS5003;17145;49.902;8.680;2023-01-16T03:59:36;1;1;
30342;PMS5003;17145;49.902;8.680;2023-01-16T04:02:10;3;3;
30342;PMS5003;17145;49.902;8.680;2023-01-16T04:04:44;1;1;
30342;PMS5003;17145;49.902;8.680;2023-01-16T04:07:18;4;2;
30342;PMS5003;17145;49.902;8.680;2023-01-16T04:09:50;1;1;
30342;PMS5003;17145;49.902;8.680;2023-01-16T04:12:24;3;1;
30342;PMS5003;17145;49.902;8.680;2023-01-16T04:14:56;1;1;
30342;PMS5003;17145;49.902;8.680;2023-01-16T04:17:27;1;1;
30342;PMS5003;17145;49.902;8.680;2023-01-16T04:19:56;1;1;
30342;PMS5003;17145;49.902;8.680;2023-01-16T04:22:24;2;2;
30342;PMS5003;17145;49.902;8.680;2023-01-16T04:24:54;2;2;
30342;PMS5003;17145;49.902;8.680;2023-01-16T04:27:23;1;1;
30342;PMS5003;17145;49.902;8.680;2023-01-16T04:29:50;1;1;
30342;PMS5003;17145;49.902;8.680;2023-01-16T04:32:18;4;2;
30342;PMS5003;17145;49.902;8.680;2023-01-16T04:34:45;3;1;
30342;PMS5003;17145;49.902;8.680;2023-01-16T04:37:13;3;2;
30342;PMS5003;17145;49.902;8.680;2023-01-16T04:39:42;4;3;
30342;PMS5003;17145;49.902;8.680;2023-01-16T04:42:09;2;1;
30342;PMS5003;17145;49.902;8.680;2023-01-16T04:44:37;1;1;
30342;PMS5003;17145;49.902;8.680;2023-01-16T04:47:05;3;2;
30342;PMS5003;17145;49.902;8.680;2023-01-16T04:49:32;1;1;
30342;PMS5003;17145;49.902;8.680;2023-01-16T04:51:59;1;1;
30342;PMS5003;17145;49.902;8.680;2023-01-16T04:54:27;3;3;
30342;PMS5003;17145;49.902;8.680;2023-01-16T04:56:54;2;2;
30342;PMS5003;17145;49.902;8.680;2023-01-16T04:59:22;2;2;
30342;PMS5003;17145;49.902;8.680;2023-01-16T05:01:49;2;2;
30342;PMS5003;17145;49.902;8.680;2023-01-16T05:04:17;2;1;
30342;PMS5003;17145;49.902;8.680;2023-01-16T05:06:44;1;1;
30342;PMS5003;17145;49.902;8.680;2023-01-16T05:09:12;1;1;
30342;PMS5003;17145;49.902;8.680;2023-01-16T05:11:39;2;2;
30342;PMS5003;17145;49.902;8.680;2023-01-16T05:14:07;4;3;
30342;PMS5003;17145;49.902;8.680;2023-01-16T05:16:35;2;2;
30342;PMS5003;17145;49.902;8.680;2023-01-16T05:19:03;3;2;
30342;PMS5003;17145;49.902;8.680;2023-01-16T05:21:31;3;2;
30342;PMS5003;17145;49.902;8.680;2023-01-16T05:23:59;3;3;
30342;PMS5003;17145;49.902;8.680;2023-01-16T05:26:26;4;4;
30342;PMS5003;17145;49.902;8.680;2023-01-16T05:28:54;3;3;
30342;PMS5003;17145;49.902;8.680;2023-01-16T05:31:21;2;2;
30342;PMS5003;17145;49.902;8.680;2023-01-16T05:33:48;3;2;
30342;PMS5003;17145;49.902;8.680;2023-01-16T05:36:16;5;2;
30342;PMS5003;17145;49.902;8.680;2023-01-16T05:38:43;3;2;
30342;PMS5003;17145;49.902;8.680;2023-01-16T05:41:11;4;3;
30342;PMS5003;17145;49.902;8.680;2023-01-16T05:43:38;2;2;
30342;PMS5003;17145;49.902;8.680;2023-01-16T05:46:05;3;2;
30342;PMS5003;17145;49.902;8.680;2023-01-16T05:48:33;2;2;
30342;PMS5003;17145;49.902;8.680;2023-01-16T05:51:00;2;2;
30342;PMS5003;17145;49.902;8.680;2023-01-16T05:53:28;8;3;
30342;PMS5003;17145;49.902;8.680;2023-01-16T05:55:56;2;2;
30342;PMS5003;17145;49.902;8.680;2023-01-16T05:58:24;3;3;
30342;PMS5003;17145;49.902;8.680;2023-01-16T06:00:52;3;2;
30342;PMS5003;17145;49.902;8.680;2023-01-16T06:03:19;4;2;
30342;PMS5003;17145;49.902;8.680;2023-01-16T06:05:46;4;2;
30342;PMS5003;17145;49.902;8.680;2023-01-16T06:08:14;1;1;
30342;PMS5003;17145;49.902;8.680;2023-01-16T06:10:41;3;3;
30342;PMS5003;17145;49.902;8.680;2023-01-16T06:13:08;3;2;
30342;PMS5003;17145;49.902;8.680;2023-01-16T06:15:36;4;3;
30342;PMS5003;17145;49.902;8.680;2023-01-16T06:18:04;3;2;
30342;PMS5003;17145;49.902;8.680;2023-01-16T06:20:31;1;1;
30342;PMS5003;17145;49.902;8.680;2023-01-16T06:22:58;2;2;
30342;PMS5003;17145;49.902;8.680;2023-01-16T06:25:26;3;2;
30342;PMS5003;17145;49.902;8.680;2023-01-16T06:27:53;2;2;
30342;PMS5003;17145;49.902;8.680;2023-01-16T06:30:20;3;3;
30342;PMS5003;17145;49.902;8.680;2023-01-16T06:32:48;3;2;
30342;PMS5003;17145;49.902;8.680;2023-01-16T06:35:16;2;2;
30342;PMS5003;17145;49.902;8.680;2023-01-16T06:37:43;4;3;
30342;PMS5003;17145;49.902;8.680;2023-01-16T06:40:11;2;2;
30342;PMS5003;17145;49.902;8.680;2023-01-16T06:42:39;3;2;
30342;PMS5003;17145;49.902;8.680;2023-01-16T06:45:06;3;2;
30342;PMS5003;17145;49.902;8.680;2023-01-16T06:47:34;2;2;
30342;PMS5003;17145;49.902;8.680;2023-01-16T06:50:02;3;2;
30342;PMS5003;17145;49.902;8.680;2023-01-16T06:52:29;3;3;
30342;PMS5003;17145;49.902;8.680;2023-01-16T06:54:56;3;3;
30342;PMS5003;17145;49.902;8.680;2023-01-16T06:57:24;3;3;
30342;PMS5003;17145;49.902;8.680;2023-01-16T06:59:51;2;2;
30342;PMS5003;17145;49.902;8.680;2023-01-16T07:02:19;2;2;
30342;PMS5003;17145;49.902;8.680;2023-01-16T07:04:46;2;2;
30342;PMS5003;17145;49.902;8.680;2023-01-16T07:07:14;2;2;
30342;PMS5003;17145;49.902;8.680;2023-01-16T07:09:41;3;3;
30342;PMS5003;17145;49.902;8.680;2023-01-16T07:12:08;2;2;
30342;PMS5003;17145;49.902;8.680;2023-01-16T07:14:36;12;3;
30342;PMS5003;17145;49.902;8.680;2023-01-16T07:17:03;5;3;
30342;PMS5003;17145;49.902;8.680;2023-01-16T07:19:31;2;2;
30342;PMS5003;17145;49.902;8.680;2023-01-16T07:21:58;2;2;
30342;PMS5003;17145;49.902;8.680;2023-01-16T07:24:26;3;2;
30342;PMS5003;17145;49.902;8.680;2023-01-16T07:26:56;3;3;
30342;PMS5003;17145;49.902;8.680;2023-01-16T07:29:26;2;2;
30342;PMS5003;17145;49.902;8.680;2023-01-16T07:31:56;4;4;
30342;PMS5003;17145;49.902;8.680;2023-01-16T07:34:25;3;3;
30342;PMS5003;17145;49.902;8.680;2023-01-16T07:36:53;4;2;
30342;PMS5003;17145;49.902;8.680;2023-01-16T07:39:20;3;3;
30342;PMS5003;17145;49.902;8.680;2023-01-16T07:41:47;3;3;
30342;PMS5003;17145;49.902;8.680;2023-01-16T07:44:15;4;2;
30342;PMS5003;17145;49.902;8.680;2023-01-16T07:46:42;5;5;
30342;PMS5003;17145;49.902;8.680;2023-01-16T07:49:09;8;4;
30342;PMS5003;17145;49.902;8.680;2023-01-16T07:51:37;3;3;
30342;PMS5003;17145;49.902;8.680;2023-01-16T07:54:04;4;4;
30342;PMS5003;17145;49.902;8.680;2023-01-16T07:56:31;2;2;
30342;PMS5003;17145;49.902;8.680;2023-01-16T07:58:59;3;3;
30342;PMS5003;17145;49.902;8.680;2023-01-16T08:01:26;3;2;
30342;PMS5003;17145;49.902;8.680;2023-01-16T08:03:53;7;3;
30342;PMS5003;17145;49.902;8.680;2023-01-16T08:06:21;3;3;
30342;PMS5003;17145;49.902;8.680;2023-01-16T08:08:49;2;2;
30342;PMS5003;17145;49.902;8.680;2023-01-16T08:11:16;5;5;
30342;PMS5003;17145;49.902;8.680;2023-01-16T08:13:43;8;4;
30342;PMS5003;17145;49.902;8.680;2023-01-16T08:16:11;3;3;
30342;PMS5003;17145;49.902;8.680;2023-01-16T08:18:38;2;2;
30342;PMS5003;17145;49.902;8.680;2023-01-16T08:21:06;4;4;
30342;PMS5003;17145;49.902;8.680;2023-01-16T08:23:33;3;3;
30342;PMS5003;17145;49.902;8.680;2023-01-16T08:26:01;4;3;
30342;PMS5003;17145;49.902;8.680;2023-01-16T08:28:28;4;4;
30342;PMS5003;17145;49.902;8.680;2023-01-16T08:30:55;3;2;
30342;PMS5003;17145;49.902;8.680;2023-01-16T08:33:28;4;4;
30342;PMS5003;17145;49.902;8.680;2023-01-16T08:35:56;3;3;
30342;PMS5003;17145;49.902;8.680;2023-01-16T08:38:23;4;3;
30342;PMS5003;17145;49.902;8.680;2023-01-16T08:40:51;3;3;
30342;PMS5003;17145;49.902;8.680;2023-01-16T08:43:19;2;2;
30342;PMS5003;17145;49.902;8.680;2023-01-16T08:45:46;3;2;
30342;PMS5003;17145;49.902;8.680;2023-01-16T08:48:14;3;2;
30342;PMS5003;17145;49.902;8.680;2023-01-16T08:50:46;4;3;
30342;PMS5003;17145;49.902;8.680;2023-01-16T08:53:14;2;2;
30342;PMS5003;17145;49.902;8.680;2023-01-16T08:55:42;2;2;
30342;PMS5003;17145;49.902;8.680;2023-01-16T08:58:09;3;3;
30342;PMS5003;17145;49.902;8.680;2023-01-16T09:00:36;3;2;
30342;PMS5003;17145;49.902;8.680;2023-01-16T09:03:04;6;3;
30342;PMS5003;17145;49.902;8.680;2023-01-16T09:05:31;4;3;
30342;PMS5003;17145;49.902;8.680;2023-01-16T09:07:58;3;2;
30342;PMS5003;17145;49.902;8.680;2023-01-16T09:10:26;2;2;
30342;PMS5003;17145;49.902;8.680;2023-01-16T09:12:53;3;2;
30342;PMS5003;17145;49.902;8.680;2023-01-16T09:15:21;3;3;
30342;PMS5003;17145;49.902;8.680;2023-01-16T09:17:48;2;2;
30342;PMS5003;17145;49.902;8.680;2023-01-16T09:20:15;2;2;
30342;PMS5003;17145;49.902;8.680;2023-01-16T09:22:43;2;2;
30342;PMS5003;17145;49.902;8.680;2023-01-16T09:25:10;6;4;
30342;PMS5003;17145;49.902;8.680;2023-01-16T09:27:38;3;2;
30342;PMS5003;17145;49.902;8.680;2023-01-16T09:30:06;3;3;
30342;PMS5003;17145;49.902;8.680;2023-01-16T09:32:34;12;3;
30342;PMS5003;17145;49.902;8.680;2023-01-16T09:35:01;7;6;
30342;PMS5003;17145;49.902;8.680;2023-01-16T09:37:29;1;1;
30342;PMS5003;17145;49.902;8.680;2023-01-16T09:39:57;3;2;
30342;PMS5003;17145;49.902;8.680;2023-01-16T09:42:30;7;4;
30342;PMS5003;17145;49.902;8.680;2023-01-16T09:45:08;3;2;
30342;PMS5003;17145;49.902;8.680;2023-01-16T09:47:40;6;3;
30342;PMS5003;17145;49.902;8.680;2023-01-16T09:50:13;6;2;
30342;PMS5003;17145;49.902;8.680;2023-01-16T09:52:47;2;2;
30342;PMS5003;17145;49.902;8.680;2023-01-16T09:55:16;3;3;
30342;PMS5003;17145;49.902;8.680;2023-01-16T09:57:50;3;3;
30342;PMS5003;17145;49.902;8.680;2023-01-16T10:00:20;3;3;
30342;PMS5003;17145;49.902;8.680;2023-01-16T10:02:50;3;3;
30342;PMS5003;17145;49.902;8.680;2023-01-16T10:05:18;4;3;
30342;PMS5003;17145;49.902;8.680;2023-01-16T10:07:49;2;2;
30342;PMS5003;17145;49.902;8.680;2023-01-16T10:10:32;2;2;
30342;PMS5003;17145;49.902;8.680;2023-01-16T10:13:11;3;3;
30342;PMS5003;17145;49.902;8.680;2023-01-16T10:15:52;4;2;
30342;PMS5003;17145;49.902;8.680;2023-01-16T10:18:30;6;3;
30342;PMS5003;17145;49.902;8.680;2023-01-16T10:21:10;3;2;
30342;PMS5003;17145;49.902;8.680;2023-01-16T10:23:50;7;4;
30342;PMS5003;17145;49.902;8.680;2023-01-16T10:26:23;2;2;
30342;PMS5003;17145;49.902;8.680;2023-01-16T10:28:58;4;2;
30342;PMS5003;17145;49.902;8.680;2023-01-16T10:31:36;3;3;
30342;PMS5003;17145;49.902;8.680;2023-01-16T10:34:08;4;3;
30342;PMS5003;17145;49.902;8.680;2023-01-16T10:36:43;6;3;
30342;PMS5003;17145;49.902;8.680;2023-01-16T10:39:14;5;3;
30342;PMS5003;17145;49.902;8.680;2023-01-16T10:41:46;4;3;
30342;PMS5003;17145;49.902;8.680;2023-01-16T10:44:24;4;3;
30342;PMS5003;17145;49.902;8.680;2023-01-16T10:46:56;4;3;
30342;PMS5003;17145;49.902;8.680;2023-01-16T10:49:24;6;6;
30342;PMS5003;17145;49.902;8.680;2023-01-16T10:51:51;6;4;
30342;PMS5003;17145;49.902;8.680;2023-01-16T10:54:20;6;6;
30342;PMS5003;17145;49.902;8.680;2023-01-16T10:56:48;3;3;
30342;PMS5003;17145;49.902;8.680;2023-01-16T10:59:15;9;6;
30342;PMS5003;17145;49.902;8.680;2023-01-16T11:01:44;4;3;
30342;PMS5003;17145;49.902;8.680;2023-01-16T11:04:16;4;4;
30342;PMS5003;17145;49.902;8.680;2023-01-16T11:06:45;6;4;
30342;PMS5003;17145;49.902;8.680;2023-01-16T11:09:16;6;6;
30342;PMS5003;17145;49.902;8.680;2023-01-16T11:11:47;6;4;
30342;PMS5003;17145;49.902;8.680;2023-01-16T11:14:17;6;3;
30342;PMS5003;17145;49.902;8.680;2023-01-16T11:16:49;3;3;
30342;PMS5003;17145;49.902;8.680;2023-01-16T11:19:17;7;6;
30342;PMS5003;17145;49.902;8.680;2023-01-16T11:21:48;7;7;
30342;PMS5003;17145;49.902;8.680;2023-01-16T11:24:19;6;6;
30342;PMS5003;17145;49.902;8.680;2023-01-16T11:26:49;6;6;
30342;PMS5003;17145;49.902;8.680;2023-01-16T11:29:19;6;6;
30342;PMS5003;17145;49.902;8.680;2023-01-16T11:31:50;7;4;
30342;PMS5003;17145;49.902;8.680;2023-01-16T11:34:21;9;6;
30342;PMS5003;17145;49.902;8.680;2023-01-16T11:36:51;4;4;
30342;PMS5003;17145;49.902;8.680;2023-01-16T11:39:21;4;4;
30342;PMS5003;17145;49.902;8.680;2023-01-16T11:41:52;7;3;
30342;PMS5003;17145;49.902;8.680;2023-01-16T11:44:22;6;4;
30342;PMS5003;17145;49.902;8.680;2023-01-16T11:46:56;3;3;
30342;PMS5003;17145;49.902;8.680;2023-01-16T11:49:27;7;3;
30342;PMS5003;17145;49.902;8.680;2023-01-16T11:51:59;9;7;
30342;PMS5003;17145;49.902;8.680;2023-01-16T11:54:28;7;7;
30342;PMS5003;17145;49.902;8.680;2023-01-16T11:57:02;4;4;
30342;PMS5003;17145;49.902;8.680;2023-01-16T11:59:45;8;4;
30342;PMS5003;17145;49.902;8.680;2023-01-16T12:02:23;17;7;
30342;PMS5003;17145;49.902;8.680;2023-01-16T12:05:02;6;6;
30342;PMS5003;17145;49.902;8.680;2023-01-16T12:07:39;6;4;
30342;PMS5003;17145;49.902;8.680;2023-01-16T12:10:19;3;3;
30342;PMS5003;17145;49.902;8.680;2023-01-16T12:12:55;4;4;
30342;PMS5003;17145;49.902;8.680;2023-01-16T12:15:31;4;3;
30342;PMS5003;17145;49.902;8.680;2023-01-16T12:18:07;4;4;
30342;PMS5003;17145;49.902;8.680;2023-01-16T12:20:45;6;6;
30342;PMS5003;17145;49.902;8.680;2023-01-16T12:23:26;4;3;
30342;PMS5003;17145;49.902;8.680;2023-01-16T12:26:07;4;2;
30342;PMS5003;17145;49.902;8.680;2023-01-16T12:28:47;7;4;
30342;PMS5003;17145;49.902;8.680;2023-01-16T12:31:28;8;6;
30342;PMS5003;17145;49.902;8.680;2023-01-16T12:34:12;6;4;
30342;PMS5003;17145;49.902;8.680;2023-01-16T12:36:54;6;3;
30342;PMS5003;17145;49.902;8.680;2023-01-16T12:39:34;4;3;
30342;PMS5003;17145;49.902;8.680;2023-01-16T12:42:11;4;3;
30342;PMS5003;17145;49.902;8.680;2023-01-16T12:44:50;6;4;
30342;PMS5003;17145;49.902;8.680;2023-01-16T12:47:30;9;4;
30342;PMS5003;17145;49.902;8.680;2023-01-16T12:50:10;3;3;
30342;PMS5003;17145;49.902;8.680;2023-01-16T12:52:52;7;4;
30342;PMS5003;17145;49.902;8.680;2023-01-16T12:55:32;4;3;
30342;PMS5003;17145;49.902;8.680;2023-01-16T12:58:11;3;2;
30342;PMS5003;17145;49.902;8.680;2023-01-16T13:00:41;3;3;
30342;PMS5003;17145;49.902;8.680;2023-01-16T13:03:15;10;4;
30342;PMS5003;17145;49.902;8.680;2023-01-16T13:05:51;6;4;
30342;PMS5003;17145;49.902;8.680;2023-01-16T13:08:23;8;6;
30342;PMS5003;17145;49.902;8.680;2023-01-16T13:10:56;2;2;
30342;PMS5003;17145;49.902;8.680;2023-01-16T13:13:28;4;2;
30342;PMS5003;17145;49.902;8.680;2023-01-16T13:16:02;3;3;
30342;PMS5003;17145;49.902;8.680;2023-01-16T13:18:37;3;3;
30342;PMS5003;17145;49.902;8.680;2023-01-16T13:21:10;3;3;
30342;PMS5003;17145;49.902;8.680;2023-01-16T13:23:44;4;3;
30342;PMS5003;17145;49.902;8.680;2023-01-16T13:26:17;8;6;
30342;PMS5003;17145;49.902;8.680;2023-01-16T13:28:47;7;6;
30342;PMS5003;17145;49.902;8.680;2023-01-16T13:31:23;6;4;
30342;PMS5003;17145;49.902;8.680;2023-01-16T13:33:56;1;1;
30342;PMS5003;17145;49.902;8.680;2023-01-16T13:36:37;4;3;
30342;PMS5003;17145;49.902;8.680;2023-01-16T13:41:56;6;4;
30342;PMS5003;17145;49.902;8.680;2023-01-16T13:44:26;2;2;
30342;PMS5003;17145;49.902;8.680;2023-01-16T13:47:02;3;3;
30342;PMS5003;17145;49.902;8.680;2023-01-16T13:49:32;6;3;
30342;PMS5003;17145;49.902;8.680;2023-01-16T13:52:00;6;6;
30342;PMS5003;17145;49.902;8.680;2023-01-16T13:54:35;7;6;
30342;PMS5003;17145;49.902;8.680;2023-01-16T13:57:07;3;2;
30342;PMS5003;17145;49.902;8.680;2023-01-16T13:59:41;3;3;
30342;PMS5003;17145;49.902;8.680;2023-01-16T14:07:46;6;4;
30342;PMS5003;17145;49.902;8.680;2023-01-16T14:10:17;4;4;
30342;PMS5003;17145;49.902;8.680;2023-01-16T14:18:15;6;6;
30342;PMS5003;17145;49.902;8.680;2023-01-16T14:20:48;7;6;
30342;PMS5003;17145;49.902;8.680;2023-01-16T14:23:21;6;4;
30342;PMS5003;17145;49.902;8.680;2023-01-16T14:25:52;3;3;
30342;PMS5003;17145;49.902;8.680;2023-01-16T14:28:21;3;3;
30342;PMS5003;17145;49.902;8.680;2023-01-16T14:30:52;4;3;
30342;PMS5003;17145;49.902;8.680;2023-01-16T14:33:20;19;8;
30342;PMS5003;17145;49.902;8.680;2023-01-16T14:35:49;4;4;
30342;PMS5003;17145;49.902;8.680;2023-01-16T14:38:19;4;3;
30342;PMS5003;17145;49.902;8.680;2023-01-16T14:40:49;4;3;
30342;PMS5003;17145;49.902;8.680;2023-01-16T14:43:25;6;3;
30342;PMS5003;17145;49.902;8.680;2023-01-16T14:48:37;6;4;
30342;PMS5003;17145;49.902;8.680;2023-01-16T14:51:10;4;4;
30342;PMS5003;17145;49.902;8.680;2023-01-16T14:53:42;7;3;
30342;PMS5003;17145;49.902;8.680;2023-01-16T14:56:14;3;3;
30342;PMS5003;17145;49.902;8.680;2023-01-16T14:58:48;13;8;
30342;PMS5003;17145;49.902;8.680;2023-01-16T15:01:23;6;6;
30342;PMS5003;17145;49.902;8.680;2023-01-16T15:03:53;4;4;
30342;PMS5003;17145;49.902;8.680;2023-01-16T15:06:21;4;3;
30342;PMS5003;17145;49.902;8.680;2023-01-16T15:08:50;6;4;
30342;PMS5003;17145;49.902;8.680;2023-01-16T15:11:21;4;3;
30342;PMS5003;17145;49.902;8.680;2023-01-16T15:16:35;8;4;
30342;PMS5003;17145;49.902;8.680;2023-01-16T15:19:03;8;6;
30342;PMS5003;17145;49.902;8.680;2023-01-16T15:21:36;4;3;
30342;PMS5003;17145;49.902;8.680;2023-01-16T15:24:08;7;4;
30342;PMS5003;17145;49.902;8.680;2023-01-16T15:26:47;7;6;
30342;PMS5003;17145;49.902;8.680;2023-01-16T15:32:09;6;3;
30342;PMS5003;17145;49.902;8.680;2023-01-16T15:34:38;4;4;
30342;PMS5003;17145;49.902;8.680;2023-01-16T15:37:12;3;3;
30342;PMS5003;17145;49.902;8.680;2023-01-16T15:39:45;4;3;
30342;PMS5003;17145;49.902;8.680;2023-01-16T15:42:13;4;3;
30342;PMS5003;17145;49.902;8.680;2023-01-16T15:44:43;6;3;
30342;PMS5003;17145;49.902;8.680;2023-01-16T15:47:18;7;4;
30342;PMS5003;17145;49.902;8.680;2023-01-16T15:50:00;6;4;
30342;PMS5003;17145;49.902;8.680;2023-01-16T15:52:38;4;4;
30342;PMS5003;17145;49.902;8.680;2023-01-16T15:55:10;3;3;
30342;PMS5003;17145;49.902;8.680;2023-01-16T15:57:43;6;6;
30342;PMS5003;17145;49.902;8.680;2023-01-16T16:00:22;6;6;
30342;PMS5003;17145;49.902;8.680;2023-01-16T16:02:55;4;3;
30342;PMS5003;17145;49.902;8.680;2023-01-16T16:05:23;4;4;
30342;PMS5003;17145;49.902;8.680;2023-01-16T16:07:53;7;4;
30342;PMS5003;17145;49.902;8.680;2023-01-16T16:10:22;3;3;
30342;PMS5003;17145;49.902;8.680;2023-01-16T16:12:52;3;3;
30342;PMS5003;17145;49.902;8.680;2023-01-16T16:15:21;2;2;
30342;PMS5003;17145;49.902;8.680;2023-01-16T16:20:27;4;4;
30342;PMS5003;17145;49.902;8.680;2023-01-16T16:22:59;6;4;
30342;PMS5003;17145;49.902;8.680;2023-01-16T16:25:30;7;6;
30342;PMS5003;17145;49.902;8.680;2023-01-16T16:28:02;6;6;
30342;PMS5003;17145;49.902;8.680;2023-01-16T16:30:31;11;7;
30342;PMS5003;17145;49.902;8.680;2023-01-16T16:32:59;8;6;
30342;PMS5003;17145;49.902;8.680;2023-01-16T16:35:28;7;6;
30342;PMS5003;17145;49.902;8.680;2023-01-16T16:37:59;8;7;
30342;PMS5003;17145;49.902;8.680;2023-01-16T16:40:28;6;6;
30342;PMS5003;17145;49.902;8.680;2023-01-16T16:42:56;8;7;
30342;PMS5003;17145;49.902;8.680;2023-01-16T16:45:25;7;6;
30342;PMS5003;17145;49.902;8.680;2023-01-16T16:50:46;6;6;
30342;PMS5003;17145;49.902;8.680;2023-01-16T16:53:14;16;8;
30342;PMS5003;17145;49.902;8.680;2023-01-16T16:55:43;9;8;
30342;PMS5003;17145;49.902;8.680;2023-01-16T16:58:14;7;6;
30342;PMS5003;17145;49.902;8.680;2023-01-16T17:00:44;8;7;
30342;PMS5003;17145;49.902;8.680;2023-01-16T17:03:13;14;6;
30342;PMS5003;17145;49.902;8.680;2023-01-16T17:05:44;4;4;
30342;PMS5003;17145;49.902;8.680;2023-01-16T17:08:15;7;7;
30342;PMS5003;17145;49.902;8.680;2023-01-16T17:10:45;7;7;
30342;PMS5003;17145;49.902;8.680;2023-01-16T17:13:13;6;6;
30342;PMS5003;17145;49.902;8.680;2023-01-16T17:15:40;6;6;
30342;PMS5003;17145;49.902;8.680;2023-01-16T17:18:09;6;6;
30342;PMS5003;17145;49.902;8.680;2023-01-16T17:20:37;4;4;
30342;PMS5003;17145;49.902;8.680;2023-01-16T17:23:07;11;4;
30342;PMS5003;17145;49.902;8.680;2023-01-16T17:25:37;7;6;
30342;PMS5003;17145;49.902;8.680;2023-01-16T17:28:05;11;9;
30342;PMS5003;17145;49.902;8.680;2023-01-16T17:30:32;7;6;
30342;PMS5003;17145;49.902;8.680;2023-01-16T17:33:01;7;7;
30342;PMS5003;17145;49.902;8.680;2023-01-16T17:35:31;8;7;
30342;PMS5003;17145;49.902;8.680;2023-01-16T17:37:59;6;6;
30342;PMS5003;17145;49.902;8.680;2023-01-16T17:40:26;8;7;
30342;PMS5003;17145;49.902;8.680;2023-01-16T17:42:54;6;6;
30342;PMS5003;17145;49.902;8.680;2023-01-16T17:45:24;8;7;
30342;PMS5003;17145;49.902;8.680;2023-01-16T17:47:56;6;6;